Time;durP1;ratioP1;P1;durP2;ratioP2;P2;SDS_P1;SDS_P2;PMS_P1;PMS_P2;Temp;Humidity;BMP_temperature;BMP_pressure;BME280_temperature;BME280_humidity;BME280_pressure;Samples;Min_cycle;Max_cycle;Signal;HPM_P1;HPM_P2
2023/08/11 00:02:53;;;;;;;7.75;4.63;;;;;;;16.91;70.08;97296.38;6270779;28;20202;-68
2023/08/11 00:05:58;;;;;;;9.20;3.80;;;;;;;16.81;70.44;97285.66;6270930;28;20419;-68
2023/08/11 00:09:07;;;;;;;7.72;4.50;;;;;;;16.87;70.54;97301.13;6270772;28;20049;-68
2023/08/11 00:12:11;;;;;;;7.20;4.20;;;;;;;16.86;70.73;97304.72;6270259;28;20179;-68
2023/08/11 00:15:18;;;;;;;10.73;4.43;;;;;;;16.85;70.61;97308.38;6270410;28;20049;-69
2023/08/11 00:18:22;;;;;;;10.07;4.63;;;;;;;16.88;70.82;97307.28;6270732;28;20190;-67
2023/08/11 00:21:27;;;;;;;11.05;5.75;;;;;;;17.00;70.30;97315.03;6270553;28;20159;-67
2023/08/11 00:24:33;;;;;;;9.32;5.75;;;;;;;17.01;70.03;97311.44;6270425;28;20182;-69
2023/08/11 00:27:38;;;;;;;11.60;6.78;;;;;;;17.03;70.11;97313.94;6270193;28;20087;-69
2023/08/11 00:30:43;;;;;;;11.88;6.32;;;;;;;17.08;70.04;97318.88;6270300;28;20047;-69
2023/08/11 00:33:48;;;;;;;10.73;5.72;;;;;;;17.17;69.50;97320.75;6270153;28;20151;-68
2023/08/11 00:36:55;;;;;;;12.27;6.78;;;;;;;17.15;69.24;97320.03;6269954;28;20080;-69
2023/08/11 00:39:58;;;;;;;7.10;5.32;;;;;;;17.12;69.47;97328.28;6270239;28;20072;-69
2023/08/11 00:43:04;;;;;;;7.80;5.18;;;;;;;17.12;69.34;97325.63;6270089;28;20041;-68
2023/08/11 00:46:11;;;;;;;7.82;4.75;;;;;;;17.10;69.27;97327.56;6269792;28;20051;-69
2023/08/11 00:49:16;;;;;;;7.15;4.70;;;;;;;17.14;69.15;97334.31;6269895;28;20519;-68
2023/08/11 00:52:20;;;;;;;8.93;5.32;;;;;;;17.23;68.99;97337.03;6269609;28;20118;-68
2023/08/11 00:55:25;;;;;;;10.80;6.40;;;;;;;17.20;68.70;97339.13;6269886;28;20182;-69
2023/08/11 00:58:30;;;;;;;11.52;7.20;;;;;;;17.25;68.19;97342.25;6269670;28;20511;-68
2023/08/11 01:01:35;;;;;;;12.40;7.55;;;;;;;17.18;68.21;97341.06;6269482;28;20124;-69
2023/08/11 01:04:40;;;;;;;9.70;6.60;;;;;;;17.15;68.40;97351.94;6269858;28;20124;-68
2023/08/11 01:07:59;;;;;;;9.13;6.35;;;;;;;17.14;68.12;97352.94;6269355;28;20175;-67
2023/08/11 01:11:40;;;;;;;9.07;5.32;;;;;;;17.15;68.25;97351.94;6269536;28;20131;-67
2023/08/11 01:15:07;;;;;;;7.45;5.60;;;;;;;17.20;68.06;97360.38;6266284;28;20088;-67
2023/08/11 01:18:14;;;;;;;10.95;5.68;;;;;;;17.27;67.56;97372.22;6269275;28;20131;-67
2023/08/11 01:21:21;;;;;;;8.98;5.35;;;;;;;17.32;67.28;97369.97;6269371;28;20123;-68
2023/08/11 01:24:27;;;;;;;8.70;5.28;;;;;;;17.42;67.08;97365.59;6268877;28;20040;-68
2023/08/11 01:27:36;;;;;;;9.15;4.90;;;;;;;17.42;67.12;97376.22;6232641;28;20049;-69
2023/08/11 01:30:40;;;;;;;6.30;3.88;;;;;;;17.51;67.03;97369.28;6244407;28;20056;-69
2023/08/11 01:33:44;;;;;;;8.80;5.00;;;;;;;17.67;66.12;97374.16;6244419;28;20049;-68
2023/08/11 01:36:58;;;;;;;7.95;4.75;;;;;;;17.75;65.84;97379.66;6244376;28;20551;-68
2023/08/11 01:40:11;;;;;;;9.25;5.75;;;;;;;17.74;64.74;97381.44;6244433;28;20188;-68
2023/08/11 01:43:17;;;;;;;6.90;4.78;;;;;;;17.71;64.41;97380.88;6244338;28;20576;-67
2023/08/11 01:46:25;;;;;;;9.50;5.22;;;;;;;17.72;64.53;97382.59;6244284;28;20092;-68
2023/08/11 01:49:29;;;;;;;10.13;5.22;;;;;;;17.68;64.53;97379.31;6244284;28;20531;-68
2023/08/11 01:52:39;;;;;;;8.52;5.50;;;;;;;17.76;64.29;97388.47;6244091;28;20045;-68
2023/08/11 01:55:44;;;;;;;13.15;5.38;;;;;;;17.82;63.98;97394.16;6244209;28;20068;-68
2023/08/11 01:58:50;;;;;;;10.20;6.10;;;;;;;17.91;63.54;97401.34;6226603;28;20176;-69
2023/08/11 02:01:55;;;;;;;9.48;6.03;;;;;;;18.02;62.47;97402.22;6244190;28;20140;-69
2023/08/11 02:05:00;;;;;;;12.50;6.55;;;;;;;18.07;62.08;97405.34;6243944;28;20132;-68
2023/08/11 02:08:05;;;;;;;11.05;6.50;;;;;;;18.05;61.27;97404.63;6244134;28;20037;-68
2023/08/11 02:11:10;;;;;;;6.22;4.47;;;;;;;17.84;62.00;97415.31;6243774;28;20075;-68
2023/08/11 02:14:14;;;;;;;6.72;4.65;;;;;;;17.71;62.72;97423.47;6243718;28;20188;-68
2023/08/11 02:17:19;;;;;;;8.82;4.82;;;;;;;17.54;63.38;97427.56;6243902;28;20033;-68
2023/08/11 02:20:24;;;;;;;8.93;5.35;;;;;;;17.28;63.64;97427.91;6226305;28;20076;-68
2023/08/11 02:23:29;;;;;;;7.13;4.82;;;;;;;17.19;64.42;97433.19;6243531;28;20104;-69
2023/08/11 02:26:34;;;;;;;5.25;4.20;;;;;;;17.14;64.15;97427.38;6253779;28;20087;-69
2023/08/11 02:29:39;;;;;;;7.78;4.57;;;;;;;17.19;63.40;97438.50;6268323;28;20132;-68
2023/08/11 02:32:47;;;;;;;7.97;4.75;;;;;;;17.32;62.55;97439.16;6268299;28;20506;-68
2023/08/11 02:35:52;;;;;;;6.85;3.88;;;;;;;17.48;61.84;97444.03;6270129;28;20182;-68
2023/08/11 02:38:57;;;;;;;9.50;5.43;;;;;;;17.50;61.24;97452.75;6272771;28;20535;-68
2023/08/11 02:42:03;;;;;;;13.48;4.75;;;;;;;17.50;61.29;97455.41;6272793;28;20051;-69
2023/08/11 02:45:09;;;;;;;9.82;5.85;;;;;;;17.60;61.00;97463.44;6272680;28;20206;-69
2023/08/11 02:48:13;;;;;;;9.10;4.80;;;;;;;17.52;60.91;97464.09;6272613;28;20127;-68
2023/08/11 02:51:18;;;;;;;6.78;4.47;;;;;;;17.38;61.06;97465.25;6272465;28;20087;-69
2023/08/11 02:54:23;;;;;;;7.22;3.75;;;;;;;17.39;60.38;97469.59;6272361;28;20131;-69
2023/08/11 02:57:27;;;;;;;6.50;3.55;;;;;;;17.50;60.39;97477.53;6272053;28;20183;-68
2023/08/11 03:00:33;;;;;;;6.13;3.70;;;;;;;17.55;60.09;97481.59;6272442;28;20406;-69
2023/08/11 03:03:38;;;;;;;6.97;3.28;;;;;;;17.62;60.04;97477.47;6272261;28;20136;-69
2023/08/11 03:06:47;;;;;;;7.15;4.18;;;;;;;17.70;59.72;97477.69;6272273;28;20126;-69
2023/08/11 03:09:53;;;;;;;7.50;4.88;;;;;;;17.75;59.30;97478.16;6272110;28;20047;-69
2023/08/11 03:12:59;;;;;;;13.55;6.28;;;;;;;17.78;58.51;97480.56;6271844;28;20420;-68
2023/08/11 03:16:03;;;;;;;13.00;8.20;;;;;;;17.89;58.31;97485.84;6272008;28;20140;-68
2023/08/11 03:19:08;;;;;;;16.02;8.50;;;;;;;18.00;57.86;97489.38;6254351;28;20523;-69
2023/08/11 03:22:13;;;;;;;11.32;6.38;;;;;;;18.06;57.75;97486.19;6271804;28;20071;-69
2023/08/11 03:25:19;;;;;;;10.05;5.55;;;;;;;18.08;57.78;97489.56;6271861;28;20135;-68
2023/08/11 03:28:24;;;;;;;12.82;5.40;;;;;;;18.08;57.57;97484.25;6271659;28;20039;-69
2023/08/11 03:31:30;;;;;;;8.60;4.65;;;;;;;18.05;57.41;97489.84;6271668;28;20491;-68
2023/08/11 03:34:35;;;;;;;8.13;4.75;;;;;;;18.04;57.76;97498.81;6271406;28;20198;-68
2023/08/11 03:37:40;;;;;;;8.90;4.63;;;;;;;18.00;57.75;97497.38;6271491;28;20049;-69
2023/08/11 03:40:44;;;;;;;10.93;5.38;;;;;;;17.97;57.82;97498.47;6271207;28;20135;-69
2023/08/11 03:43:51;;;;;;;10.15;5.05;;;;;;;17.94;57.60;97494.25;6271417;28;20435;-69
2023/08/11 03:46:56;;;;;;;8.07;4.72;;;;;;;17.93;57.69;97497.91;6270779;28;20099;-69
2023/08/11 03:50:01;;;;;;;10.52;4.80;;;;;;;17.85;57.53;97495.03;6271122;28;20174;-69
2023/08/11 03:53:07;;;;;;;7.03;4.40;;;;;;;17.79;57.47;97500.06;6270666;28;20114;-69
2023/08/11 03:56:12;;;;;;;9.85;4.00;;;;;;;17.68;57.48;97498.25;6270504;28;20052;-69
2023/08/11 03:59:17;;;;;;;6.90;4.20;;;;;;;17.61;57.71;97499.75;6270664;28;20202;-70
2023/08/11 04:02:23;;;;;;;10.07;4.68;;;;;;;17.62;57.24;97502.25;6270441;28;20182;-68
2023/08/11 04:05:28;;;;;;;12.25;5.40;;;;;;;17.68;57.05;97498.25;6270639;28;20530;-69
2023/08/11 04:08:33;;;;;;;5.65;4.20;;;;;;;17.78;56.67;97504.53;6270323;28;20127;-68
2023/08/11 04:11:38;;;;;;;10.07;4.80;;;;;;;17.80;56.70;97507.88;6253130;28;20091;-69
2023/08/11 04:14:43;;;;;;;9.27;3.85;;;;;;;17.79;56.97;97508.03;6270905;28;20045;-69
2023/08/11 04:17:48;;;;;;;9.73;4.32;;;;;;;17.89;56.90;97506.25;6270657;28;20047;-68
2023/08/11 04:20:53;;;;;;;8.05;4.10;;;;;;;17.90;56.61;97498.16;6270935;28;20151;-68
2023/08/11 04:23:58;;;;;;;6.70;3.97;;;;;;;17.92;56.15;97501.53;6270385;28;20111;-68
2023/08/11 04:27:03;;;;;;;8.07;4.70;;;;;;;17.99;55.87;97509.84;6270174;28;20144;-68
2023/08/11 04:30:10;;;;;;;13.07;4.43;;;;;;;18.17;55.21;97504.75;6270438;28;20067;-68
2023/08/11 04:33:15;;;;;;;8.68;4.07;;;;;;;18.46;54.36;97504.94;6269921;28;20075;-69
2023/08/11 04:36:20;;;;;;;9.95;3.85;;;;;;;18.67;53.96;97496.88;6269958;28;20199;-69
2023/08/11 04:39:25;;;;;;;8.10;3.80;;;;;;;18.83;53.04;97494.59;6269869;28;20132;-69
2023/08/11 04:42:30;;;;;;;15.18;5.22;;;;;;;18.94;52.81;97492.75;6269742;28;20494;-69
2023/08/11 04:45:35;;;;;;;10.80;4.35;;;;;;;19.09;51.22;97496.75;6269915;28;20195;-69
2023/08/11 04:48:40;;;;;;;10.43;4.65;;;;;;;19.21;49.89;97506.31;6269425;28;20088;-69
2023/08/11 04:51:45;;;;;;;5.15;2.80;;;;;;;19.37;49.08;97499.59;6269461;28;20519;-69
2023/08/11 04:54:50;;;;;;;6.72;2.80;;;;;;;21.04;45.92;97498.13;6269559;28;20083;-69
2023/08/11 04:57:55;;;;;;;8.77;2.53;;;;;;;25.70;37.68;97506.53;6269206;28;20507;-68
2023/08/11 05:00:58;;;;;;;10.18;2.95;;;;;;;29.61;30.69;97518.25;6269545;28;20500;-68
2023/08/11 05:04:04;;;;;;;3.65;2.15;;;;;;;31.93;27.10;97527.97;6269359;28;20048;-68
2023/08/11 05:07:09;;;;;;;5.60;2.45;;;;;;;34.37;23.88;97528.19;6269374;28;20080;-69
2023/08/11 05:10:14;;;;;;;9.02;5.68;;;;;;;36.38;21.98;97542.25;6269212;28;20080;-69
2023/08/11 05:13:19;;;;;;;6.68;4.03;;;;;;;37.70;20.77;97543.34;6269155;28;20503;-68
2023/08/11 05:16:25;;;;;;;5.85;2.33;;;;;;;38.73;19.61;97539.66;6269348;28;20126;-66
2023/08/11 05:19:31;;;;;;;2.88;1.67;;;;;;;37.25;20.17;97535.34;6269325;28;20504;-69
2023/08/11 05:22:38;;;;;;;6.32;2.10;;;;;;;35.65;20.97;97536.53;6250881;28;20182;-67
2023/08/11 05:25:41;;;;;;;4.38;2.97;;;;;;;36.18;20.70;97538.09;6268792;28;20090;-69
2023/08/11 05:28:45;;;;;;;5.65;3.20;;;;;;;38.50;18.57;97540.03;6268899;28;20171;-69
2023/08/11 05:31:50;;;;;;;3.95;2.40;;;;;;;40.97;16.60;97538.66;6268801;28;20061;-68
2023/08/11 05:34:56;;;;;;;3.15;1.58;;;;;;;42.13;14.82;97544.00;6268861;28;20182;-68
2023/08/11 05:38:01;;;;;;;2.80;0.80;;;;;;;43.21;14.39;97546.66;6268792;28;20497;-68
2023/08/11 05:41:06;;;;;;;2.60;0.90;;;;;;;43.82;13.14;97538.69;6268945;28;20127;-67
2023/08/11 05:44:11;;;;;;;1.80;0.70;;;;;;;44.01;12.38;97531.25;6268714;28;20135;-67
2023/08/11 05:47:18;;;;;;;2.92;1.00;;;;;;;44.01;12.90;97542.31;6268781;28;20206;-69
2023/08/11 05:50:23;;;;;;;2.17;1.17;;;;;;;44.69;12.55;97549.28;6268679;28;20087;-67
2023/08/11 05:53:26;;;;;;;1.27;0.73;;;;;;;45.07;11.52;97551.13;6268521;28;20139;-68
2023/08/11 05:56:31;;;;;;;2.60;1.20;;;;;;;45.63;11.25;97547.25;6268846;28;20179;-68
2023/08/11 05:59:33;;;;;;;5.57;1.20;;;;;;;46.24;11.17;97545.88;6268595;28;20045;-68
2023/08/11 06:02:37;;;;;;;1.63;1.40;;;;;;;45.20;11.40;97544.78;6268902;28;20083;-69
2023/08/11 06:05:41;;;;;;;1.50;1.00;;;;;;;43.96;12.33;97533.25;6268596;28;20559;-69
2023/08/11 06:08:45;;;;;;;1.85;0.88;;;;;;;44.96;11.46;97540.22;6268645;28;20155;-68
2023/08/11 06:11:50;;;;;;;3.00;1.30;;;;;;;43.35;12.18;97545.97;6273591;28;20072;-68
2023/08/11 06:14:54;;;;;;;2.25;1.20;;;;;;;44.53;11.81;97531.25;6273485;28;20202;-69
2023/08/11 06:17:59;;;;;;;3.58;1.60;;;;;;;46.53;10.76;97534.31;6273335;28;20040;-69
2023/08/11 06:21:05;;;;;;;6.68;2.28;;;;;;;48.04;9.82;97555.78;6273606;28;20142;-68
2023/08/11 06:24:09;;;;;;;2.22;1.30;;;;;;;49.19;9.08;97539.38;6255029;28;20318;-68
2023/08/11 06:27:13;;;;;;;2.85;1.40;;;;;;;50.02;9.13;97546.31;6272888;28;20067;-69
2023/08/11 06:30:19;;;;;;;4.07;1.50;;;;;;;50.74;8.26;97547.84;6273225;28;20525;-67
2023/08/11 06:33:24;;;;;;;3.13;1.35;;;;;;;48.99;9.13;97540.94;6272985;28;20090;-68
2023/08/11 06:36:27;;;;;;;6.07;1.65;;;;;;;46.86;10.07;97538.81;6272396;28;20167;-68
2023/08/11 06:39:31;;;;;;;4.65;1.38;;;;;;;46.61;10.57;97537.50;6272668;28;20135;-68
2023/08/11 06:42:35;;;;;;;2.22;1.42;;;;;;;43.98;11.72;97537.38;6272683;28;20427;-69
2023/08/11 06:45:42;;;;;;;3.00;1.20;;;;;;;42.18;12.63;97523.75;6272445;28;20045;-68
2023/08/11 06:48:46;;;;;;;1.42;0.93;;;;;;;39.20;15.20;97516.81;6272681;28;20574;-72
2023/08/11 06:51:50;;;;;;;3.97;0.80;;;;;;;38.83;14.90;97514.94;6272577;28;20075;-69
2023/08/11 06:54:55;;;;;;;4.55;1.00;;;;;;;40.56;13.79;97510.25;6272262;28;20186;-69
2023/08/11 06:58:00;;;;;;;5.13;0.90;;;;;;;44.35;11.36;97514.34;6272428;28;20084;-69
2023/08/11 07:01:05;;;;;;;1.30;0.90;;;;;;;46.97;9.82;97527.06;6272417;28;20041;-68
2023/08/11 07:04:10;;;;;;;1.83;1.00;;;;;;;49.15;9.16;97528.03;6273010;28;20159;-69
2023/08/11 07:07:14;;;;;;;7.00;2.00;;;;;;;50.50;8.43;97536.53;6272894;28;20140;-68
2023/08/11 07:10:22;;;;;;;3.10;1.38;;;;;;;50.62;7.78;97538.53;6271989;28;20210;-71
2023/08/11 07:13:26;;;;;;;4.78;1.10;;;;;;;50.25;8.32;97525.22;6271976;28;20136;-69
2023/08/11 07:16:31;;;;;;;3.28;1.10;;;;;;;51.24;7.93;97531.09;6272046;28;20459;-69
2023/08/11 07:19:35;;;;;;;2.45;0.70;;;;;;;51.92;7.42;97539.72;6271840;28;20051;-69
2023/08/11 07:22:40;;;;;;;2.80;0.95;;;;;;;52.50;7.07;97537.44;6271280;28;20182;-69
2023/08/11 07:25:44;;;;;;;1.55;0.70;;;;;;;53.64;6.37;97538.78;6271881;28;20183;-69
2023/08/11 07:28:49;;;;;;;1.52;0.60;;;;;;;54.65;6.10;97542.63;6271798;28;20068;-70
2023/08/11 07:31:53;;;;;;;4.75;0.63;;;;;;;55.51;5.92;97546.94;6271755;28;20049;-70
2023/08/11 07:34:58;;;;;;;1.25;0.50;;;;;;;56.37;5.50;97542.53;6272107;28;20202;-70
2023/08/11 07:38:05;;;;;;;1.00;0.38;;;;;;;56.04;5.49;97537.66;6271849;28;20140;-69
2023/08/11 07:41:08;;;;;;;3.33;0.70;;;;;;;56.17;5.32;97546.69;6253379;28;20179;-68
2023/08/11 07:44:12;;;;;;;1.90;0.80;;;;;;;56.29;5.35;97538.00;6271677;28;20037;-68
2023/08/11 07:47:17;;;;;;;1.98;1.10;;;;;;;56.44;5.09;97539.78;6255657;28;20091;-69
2023/08/11 07:50:22;;;;;;;1.25;0.82;;;;;;;56.89;5.07;97554.84;6275320;28;20064;-68
2023/08/11 07:53:26;;;;;;;0.50;0.40;;;;;;;56.00;5.40;97545.25;6257929;28;20053;-69
2023/08/11 07:56:31;;;;;;;2.05;0.70;;;;;;;55.03;5.95;97532.44;6271241;28;20155;-69
2023/08/11 07:59:37;;;;;;;0.50;0.32;;;;;;;54.80;5.78;97532.41;6271105;28;20051;-68
2023/08/11 08:02:43;;;;;;;5.68;0.68;;;;;;;54.87;5.21;97520.44;6270921;28;20183;-69
2023/08/11 08:05:47;;;;;;;0.60;0.38;;;;;;;54.77;5.12;97521.09;6270577;28;20167;-69
2023/08/11 08:08:52;;;;;;;0.65;0.40;;;;;;;54.79;5.36;97518.72;6270768;28;20106;-69
2023/08/11 08:11:57;;;;;;;1.08;0.40;;;;;;;54.97;5.58;97514.22;6270851;28;20088;-69
2023/08/11 08:15:01;;;;;;;2.08;0.32;;;;;;;53.98;5.46;97499.75;6270614;28;20634;-69
2023/08/11 08:18:06;;;;;;;2.70;0.50;;;;;;;53.34;6.04;97497.13;6270656;28;20041;-69
2023/08/11 08:21:11;;;;;;;0.82;0.40;;;;;;;53.52;5.85;97502.34;6270315;28;20554;-68
2023/08/11 08:24:19;;;;;;;2.07;0.50;;;;;;;54.95;5.49;97505.28;6269567;28;20140;-68
2023/08/11 08:27:24;;;;;;;2.03;0.40;;;;;;;55.33;4.85;97506.38;6270192;28;20052;-69
2023/08/11 08:30:29;;;;;;;2.88;0.77;;;;;;;55.28;5.17;97504.69;6270363;28;20540;-70
2023/08/11 08:33:33;;;;;;;2.28;1.02;;;;;;;56.04;5.05;97504.59;6269200;28;20041;-70
2023/08/11 08:36:38;;;;;;;2.78;0.65;;;;;;;54.34;5.71;97495.72;6270027;28;20114;-70
2023/08/11 08:39:44;;;;;;;1.70;0.88;;;;;;;49.21;8.04;97487.56;6269953;28;20159;-71
2023/08/11 08:42:49;;;;;;;2.50;1.02;;;;;;;44.20;10.77;97472.16;6270050;28;20037;-69
2023/08/11 08:45:56;;;;;;;0.88;0.57;;;;;;;41.79;12.09;97460.19;6269737;28;20492;-71
2023/08/11 08:49:24;;;;;;;1.98;0.88;;;;;;;45.15;10.35;97467.13;6269869;28;20207;-70
2023/08/11 08:52:30;;;;;;;1.17;0.63;;;;;;;48.69;8.16;97487.75;6269909;28;20499;-70
2023/08/11 08:55:35;;;;;;;1.33;0.70;;;;;;;49.47;7.94;97489.41;6269694;28;20162;-70
2023/08/11 08:58:41;;;;;;;1.33;0.55;;;;;;;46.21;9.78;97479.75;6269396;28;20159;-70
2023/08/11 09:01:47;;;;;;;3.83;0.80;;;;;;;42.74;11.66;97472.69;6269269;28;20531;-69
2023/08/11 09:04:51;;;;;;;1.10;0.90;;;;;;;39.67;13.83;97463.59;6269275;28;20048;-69
2023/08/11 09:07:56;;;;;;;2.20;0.70;;;;;;;37.71;15.45;97456.31;6269454;28;20194;-70
2023/08/11 09:11:02;;;;;;;2.60;0.60;;;;;;;36.06;16.12;97457.88;6269719;28;20715;-70
2023/08/11 09:14:08;;;;;;;3.72;0.50;;;;;;;34.89;17.07;97470.09;6269209;28;20186;-69
2023/08/11 09:17:13;;;;;;;1.60;0.77;;;;;;;35.57;16.74;97473.16;6269252;28;20040;-71
2023/08/11 09:20:19;;;;;;;3.78;1.38;;;;;;;37.12;15.81;97478.97;6269132;28;20535;-70
2023/08/11 09:23:24;;;;;;;4.88;1.70;;;;;;;40.08;13.70;97482.94;6269092;28;20175;-70
2023/08/11 09:26:29;;;;;;;3.15;1.52;;;;;;;43.94;10.92;97497.50;6268796;28;20554;-69
2023/08/11 09:29:39;;;;;;;3.58;1.50;;;;;;;44.95;10.09;97483.03;6269056;28;20174;-70
2023/08/11 09:32:48;;;;;;;2.70;1.00;;;;;;;43.19;11.22;97487.16;6269024;28;20526;-69
2023/08/11 09:35:53;;;;;;;1.25;0.55;;;;;;;40.05;12.70;97478.00;6268878;28;20041;-69
2023/08/11 09:39:07;;;;;;;2.35;0.70;;;;;;;38.67;13.72;97480.22;6269002;28;20427;-70
2023/08/11 09:42:15;;;;;;;1.67;0.70;;;;;;;39.91;13.13;97477.69;6268741;28;20037;-70
2023/08/11 09:45:19;;;;;;;3.20;0.70;;;;;;;41.54;11.89;97481.31;6271590;28;20045;-70
2023/08/11 09:48:23;;;;;;;1.38;0.40;;;;;;;40.09;12.48;97479.13;6274066;28;20049;-69
2023/08/11 09:51:29;;;;;;;2.33;0.40;;;;;;;37.56;13.86;97470.69;6273996;28;20525;-70
2023/08/11 09:54:36;;;;;;;3.72;1.13;;;;;;;37.39;14.08;97470.75;6273726;28;20198;-71
2023/08/11 09:57:45;;;;;;;2.00;1.08;;;;;;;38.37;13.29;97470.63;6273686;28;20103;-70
2023/08/11 10:00:52;;;;;;;6.38;1.58;;;;;;;37.05;15.26;97473.63;6270904;28;20131;-69
2023/08/11 10:03:58;;;;;;;2.17;1.10;;;;;;;34.99;16.52;97478.50;6255803;28;20040;-70
2023/08/11 10:07:10;;;;;;;4.50;0.88;;;;;;;33.42;17.92;97477.06;6255821;28;20041;-70
2023/08/11 10:10:17;;;;;;;1.65;0.50;;;;;;;35.48;16.29;97478.16;6255784;28;20075;-70
2023/08/11 10:13:26;;;;;;;0.63;0.38;;;;;;;38.22;13.77;97481.53;6273445;28;20095;-70
2023/08/11 10:16:30;;;;;;;1.35;0.45;;;;;;;40.51;12.39;97491.81;6273377;28;20044;-70
2023/08/11 10:19:36;;;;;;;0.80;0.40;;;;;;;42.09;11.51;97492.31;6273192;28;20127;-69
2023/08/11 10:22:41;;;;;;;1.45;0.47;;;;;;;42.92;10.66;97494.09;6273522;28;20136;-70
2023/08/11 10:25:47;;;;;;;1.50;0.40;;;;;;;44.06;10.22;97488.75;6272968;28;20063;-70
2023/08/11 10:28:52;;;;;;;0.95;0.52;;;;;;;44.60;10.06;97498.38;6273386;28;20102;-71
2023/08/11 10:31:59;;;;;;;2.47;0.98;;;;;;;42.59;11.09;97501.31;6273006;28;20127;-68
2023/08/11 10:35:07;;;;;;;1.83;1.27;;;;;;;39.57;13.00;97493.88;6272972;28;20507;-70
2023/08/11 10:38:11;;;;;;;2.00;0.70;;;;;;;37.29;14.73;97487.13;6272339;28;20041;-69
2023/08/11 10:41:21;;;;;;;0.88;0.30;;;;;;;38.03;13.57;97485.75;6272621;28;20140;-70
2023/08/11 10:44:30;;;;;;;4.57;0.68;;;;;;;39.44;12.97;97488.91;6255071;28;20118;-70
2023/08/11 10:47:39;;;;;;;2.60;0.80;;;;;;;39.90;12.46;97491.78;6272847;28;20083;-71
2023/08/11 10:50:45;;;;;;;0.68;0.55;;;;;;;39.66;12.86;97494.16;6272574;28;20508;-70
2023/08/11 10:53:50;;;;;;;1.00;0.70;;;;;;;39.83;12.70;97491.19;6272681;28;20182;-70
2023/08/11 10:56:54;;;;;;;0.77;0.55;;;;;;;39.94;13.03;97490.09;6271372;28;20037;-70
2023/08/11 10:59:59;;;;;;;2.65;0.70;;;;;;;40.35;12.75;97488.22;6272456;28;20072;-70
2023/08/11 11:03:04;;;;;;;3.65;0.60;;;;;;;40.69;12.53;97497.88;6272303;28;20132;-69
2023/08/11 11:06:09;;;;;;;2.97;1.02;;;;;;;41.29;12.37;97504.34;6272128;28;20045;-70
2023/08/11 11:09:15;;;;;;;2.38;0.68;;;;;;;41.68;12.01;97498.09;6272231;28;20075;-70
2023/08/11 11:12:21;;;;;;;2.90;1.15;;;;;;;42.04;11.69;97500.63;6272290;28;20186;-70
2023/08/11 11:15:29;;;;;;;2.05;0.90;;;;;;;42.15;11.15;97502.22;6271837;28;20096;-70
2023/08/11 11:18:34;;;;;;;1.10;0.45;;;;;;;42.17;11.27;97511.06;6271767;28;20527;-70
2023/08/11 11:21:42;;;;;;;2.75;0.60;;;;;;;42.02;11.42;97502.88;6271912;28;20079;-69
2023/08/11 11:24:48;;;;;;;1.42;0.70;;;;;;;42.08;11.23;97497.00;6271643;28;20041;-70
2023/08/11 11:27:53;;;;;;;1.38;0.80;;;;;;;41.61;11.37;97495.63;6271407;28;20059;-70
2023/08/11 11:30:57;;;;;;;1.35;0.50;;;;;;;40.13;12.57;97491.22;6254209;28;20056;-70
2023/08/11 11:34:03;;;;;;;1.17;0.90;;;;;;;39.54;12.91;97480.63;6253937;28;20099;-70
2023/08/11 11:37:08;;;;;;;3.92;1.05;;;;;;;39.22;13.36;97498.13;6253679;28;20165;-70
2023/08/11 11:40:13;;;;;;;1.63;0.60;;;;;;;38.83;13.76;97489.38;6271307;28;20059;-69
2023/08/11 11:43:18;;;;;;;1.55;0.70;;;;;;;38.32;13.86;97489.81;6271272;28;20075;-71
2023/08/11 11:46:24;;;;;;;0.75;0.45;;;;;;;37.26;14.08;97482.97;6271312;28;20128;-69
2023/08/11 11:49:33;;;;;;;2.47;0.70;;;;;;;36.79;14.66;97482.59;6271307;28;20047;-71
2023/08/11 11:52:36;;;;;;;1.80;0.55;;;;;;;35.75;15.70;97473.78;6270910;28;20049;-70
2023/08/11 11:55:47;;;;;;;1.60;0.80;;;;;;;34.82;16.31;97464.75;6270464;28;20446;-70
2023/08/11 11:58:51;;;;;;;1.60;0.93;;;;;;;34.92;16.19;97469.59;6270390;28;20037;-71
2023/08/11 12:02:00;;;;;;;3.92;0.90;;;;;;;34.93;16.58;97462.22;6270459;28;20555;-69
2023/08/11 12:05:04;;;;;;;4.88;1.60;;;;;;;35.00;16.57;97465.66;6270428;28;20127;-71
2023/08/11 12:08:20;;;;;;;3.60;1.00;;;;;;;34.37;16.64;97462.63;6270053;28;20083;-70
2023/08/11 12:11:30;;;;;;;2.95;1.80;;;;;;;33.06;18.04;97469.75;6270251;28;20166;-70
2023/08/11 12:14:35;;;;;;;1.65;1.27;;;;;;;32.50;18.50;97468.03;6270380;28;20040;-70
2023/08/11 12:17:40;;;;;;;1.98;1.00;;;;;;;32.79;18.17;97464.59;6270234;28;20032;-70
2023/08/11 12:20:46;;;;;;;4.10;1.20;;;;;;;33.22;17.94;97457.41;6270809;28;20462;-70
2023/08/11 12:23:50;;;;;;;3.97;1.02;;;;;;;33.70;17.68;97464.72;6270367;28;20206;-70
2023/08/11 12:26:55;;;;;;;1.15;0.80;;;;;;;34.19;16.96;97459.97;6270194;28;20099;-70
2023/08/11 12:30:00;;;;;;;1.80;0.82;;;;;;;34.42;17.03;97465.47;6270275;28;20127;-69
2023/08/11 12:33:04;;;;;;;2.67;0.95;;;;;;;34.36;16.73;97455.47;6270097;28;20424;-71
2023/08/11 12:36:08;;;;;;;0.88;0.77;;;;;;;34.32;17.16;97451.56;6269821;28;20041;-70
2023/08/11 12:39:13;;;;;;;2.92;1.38;;;;;;;33.74;17.51;97452.28;6270000;28;20155;-70
2023/08/11 12:42:18;;;;;;;4.50;1.63;;;;;;;33.11;17.95;97448.09;6270002;28;20390;-70
2023/08/11 12:45:22;;;;;;;2.58;1.30;;;;;;;33.02;17.87;97455.75;6269820;28;20056;-70
2023/08/11 12:48:27;;;;;;;2.53;1.60;;;;;;;32.99;17.91;97456.22;6269695;28;20055;-70
2023/08/11 12:51:31;;;;;;;3.90;1.17;;;;;;;32.46;18.97;97447.75;6269777;28;20146;-70
2023/08/11 12:54:36;;;;;;;2.15;1.20;;;;;;;32.13;18.62;97452.44;6269464;28;20179;-70
2023/08/11 12:57:40;;;;;;;3.88;1.23;;;;;;;31.97;19.18;97458.44;6269283;28;20128;-70
2023/08/11 13:00:44;;;;;;;5.47;1.30;;;;;;;31.95;19.33;97449.66;6269398;28;20076;-70
2023/08/11 13:03:50;;;;;;;4.93;1.42;;;;;;;31.67;19.39;97459.03;6269456;28;20103;-70
2023/08/11 13:06:56;;;;;;;1.98;1.23;;;;;;;31.55;19.08;97458.06;6269597;28;20076;-70
2023/08/11 13:10:01;;;;;;;2.90;1.23;;;;;;;31.37;19.26;97453.38;6269837;28;20055;-70
2023/08/11 13:13:08;;;;;;;3.20;1.10;;;;;;;31.26;19.36;97457.56;6269167;28;20510;-70
2023/08/11 13:16:12;;;;;;;2.85;0.85;;;;;;;30.96;20.03;97451.84;6269103;28;20079;-70
2023/08/11 13:19:18;;;;;;;2.33;1.05;;;;;;;30.63;20.41;97451.91;6268648;28;20041;-70
2023/08/11 13:22:23;;;;;;;2.55;1.08;;;;;;;30.34;20.59;97459.50;6269246;28;20183;-70
2023/08/11 13:25:27;;;;;;;3.70;1.10;;;;;;;29.96;21.12;97457.41;6268479;28;20183;-70
2023/08/11 13:28:32;;;;;;;4.07;1.52;;;;;;;29.72;21.01;97458.00;6269093;28;20535;-70
2023/08/11 13:31:37;;;;;;;2.40;1.30;;;;;;;29.56;21.61;97450.25;6268917;28;20084;-69
2023/08/11 13:34:42;;;;;;;8.70;2.00;;;;;;;29.38;21.94;97459.78;6268732;28;20139;-69
2023/08/11 13:37:46;;;;;;;3.15;1.60;;;;;;;29.05;22.30;97455.13;6268613;28;20195;-70
2023/08/11 13:40:51;;;;;;;3.25;1.50;;;;;;;28.89;22.49;97460.84;6268731;28;20091;-70
2023/08/11 13:43:56;;;;;;;5.97;1.48;;;;;;;28.77;22.59;97460.56;6268737;28;20125;-70
2023/08/11 13:47:01;;;;;;;3.03;1.42;;;;;;;28.89;22.52;97460.84;6268567;28;20127;-70
2023/08/11 13:50:05;;;;;;;3.55;1.90;;;;;;;28.81;22.59;97463.72;6268764;28;20051;-70
2023/08/11 13:53:11;;;;;;;5.88;2.65;;;;;;;28.57;22.90;97460.47;6268608;28;20504;-70
2023/08/11 13:56:15;;;;;;;5.80;2.30;;;;;;;28.21;23.16;97464.16;6268654;28;20190;-69
2023/08/11 13:59:18;;;;;;;6.70;2.10;;;;;;;28.02;23.16;97462.13;6268633;28;20083;-69
2023/08/11 14:02:23;;;;;;;5.15;2.35;;;;;;;27.77;23.60;97456.28;6268490;28;20531;-70
2023/08/11 14:05:29;;;;;;;3.33;2.30;;;;;;;27.58;23.95;97462.31;6268564;28;20131;-70
2023/08/11 14:08:33;;;;;;;4.65;2.55;;;;;;;27.54;23.97;97462.72;6268591;28;20524;-70
2023/08/11 14:11:37;;;;;;;5.10;2.20;;;;;;;27.46;24.25;97464.69;6268384;28;20277;-70
2023/08/11 14:14:43;;;;;;;9.35;2.35;;;;;;;27.43;24.18;97470.47;6250721;28;20105;-69
2023/08/11 14:17:48;;;;;;;7.65;2.22;;;;;;;27.18;24.44;97457.34;6268392;28;20048;-70
2023/08/11 14:20:53;;;;;;;5.43;1.50;;;;;;;26.85;24.75;97465.81;6268449;28;20155;-69
2023/08/11 14:23:59;;;;;;;6.68;1.65;;;;;;;26.34;25.17;97476.50;6268339;28;20560;-70
2023/08/11 14:27:05;;;;;;;5.00;2.03;;;;;;;25.89;26.01;97486.34;6268188;28;20207;-70
2023/08/11 14:30:08;;;;;;;5.32;1.63;;;;;;;25.60;26.04;97483.53;6268634;28;20126;-70
2023/08/11 14:33:13;;;;;;;3.80;1.50;;;;;;;25.34;26.36;97490.09;6272700;28;20067;-69
2023/08/11 14:36:17;;;;;;;2.80;1.40;;;;;;;25.09;26.84;97492.03;6272711;28;20045;-70